Weather reports worldwide

Advertisment
Dobbiaco, Italy (16033): temperature & dewpoint: 12.08.2019 03:00:00 - 18.08.2019 03:00:00 (CEST)Dobbiaco, Italy (16033): wind speed: 12.08.2019 03:00:00 - 18.08.2019 03:00:00 (CEST)Dobbiaco, Italy (16033): wind direction: 12.08.2019 03:00:00 - 18.08.2019 03:00:00 (CEST)Dobbiaco, Italy (16033): visibility: 12.08.2019 03:00:00 - 18.08.2019 03:00:00 (CEST)
Date & Time tt [°C] td [°C] ff [km/h] ff [kn] dd vv [km]
18.08.2019 03:00:00 - - - - - -
18.08.2019 02:00:00 - - - - - -
18.08.2019 01:00:00 - - - - - -
18.08.2019 00:00:00 - - - - - -
17.08.2019 23:00:00 - - - - - -
17.08.2019 22:00:00 - - - - - -
17.08.2019 21:00:00 - - - - - -
17.08.2019 20:00:00 20,0 10,7 0 0 N 25
17.08.2019 19:00:00 21,0 9,0 - - - 10
17.08.2019 18:00:00 21,0 9,0 - - - 10
17.08.2019 17:00:00 21,2 7,1 9 5 W 25
17.08.2019 16:00:00 22,0 10,0 - - - 10
17.08.2019 15:00:00 21,0 9,0 - - - 10
17.08.2019 14:00:00 21,0 8,6 11 6 W 25
17.08.2019 13:00:00 20,0 8,0 - - - 10
17.08.2019 12:00:00 19,0 9,0 - - - 10
17.08.2019 11:00:00 17,4 9,6 9 5 W 25
17.08.2019 10:00:00 15,0 10,0 - - - 10
17.08.2019 09:00:00 13,0 10,0 - - - 10
17.08.2019 08:00:00 12,2 9,8 0 0 N 18
17.08.2019 07:00:00 - - - - - -
17.08.2019 06:00:00 - - - - - -
17.08.2019 05:00:00 - - - - - -
17.08.2019 04:00:00 - - - - - -
17.08.2019 03:00:00 - - - - - -
17.08.2019 02:00:00 - - - - - -
17.08.2019 01:00:00 - - - - - -
17.08.2019 00:00:00 - - - - - -
16.08.2019 23:00:00 - - - - - -
16.08.2019 22:00:00 - - - - - -
16.08.2019 21:00:00 - - - - - -
16.08.2019 20:00:00 17,0 7,9 13 7 E 30
16.08.2019 19:00:00 19,0 4,0 11 6 - 10
16.08.2019 18:00:00 21,0 1,0 4 2 - 10
16.08.2019 17:00:00 21,1 1,4 5 3 - 30
16.08.2019 16:00:00 21,0 1,0 8 4 - 10
16.08.2019 15:00:00 20,0 2,0 5 3 - 10
16.08.2019 14:00:00 20,0 1,0 8 4 W 28
16.08.2019 13:00:00 20,0 2,0 8 4 - 10
16.08.2019 12:00:00 18,0 4,0 4 2 - 10
16.08.2019 11:00:00 15,9 8,2 0 0 N 30
16.08.2019 10:00:00 14,0 9,0 - - - 10
16.08.2019 09:00:00 13,0 10,0 2 1 - 10
16.08.2019 08:00:00 11,8 10,2 0 0 N 10
16.08.2019 07:00:00 - - - - - -
16.08.2019 06:00:00 - - - - - -
16.08.2019 05:00:00 - - - - - -
16.08.2019 04:00:00 - - - - - -
16.08.2019 03:00:00 - - - - - -
16.08.2019 02:00:00 - - - - - -
16.08.2019 01:00:00 - - - - - -
16.08.2019 00:00:00 - - - - - -
15.08.2019 23:00:00 - - - - - -
15.08.2019 22:00:00 - - - - - -
15.08.2019 21:00:00 - - - - - -
15.08.2019 20:00:00 16,9 11,2 0 0 N 28
15.08.2019 19:00:00 19,0 7,0 8 4 - 10
15.08.2019 18:00:00 21,0 5,0 4 2 - 10
15.08.2019 17:00:00 21,1 4,2 2 1 - 30
15.08.2019 16:00:00 21,0 5,0 4 2 - 10
15.08.2019 15:00:00 20,0 8,0 2 1 - 10
15.08.2019 14:00:00 19,4 6,8 9 5 W 25
15.08.2019 13:00:00 18,0 8,0 8 4 - 10
15.08.2019 12:00:00 17,0 7,0 5 3 - 10
15.08.2019 11:00:00 16,5 8,7 0 0 N 22
15.08.2019 10:00:00 14,0 11,0 4 2 - 10
15.08.2019 09:00:00 13,0 10,0 4 2 - 10
15.08.2019 08:00:00 11,3 9,6 0 0 N 18
15.08.2019 07:00:00 - - - - - -
15.08.2019 06:00:00 - - - - - -
15.08.2019 05:00:00 - - - - - -
15.08.2019 04:00:00 - - - - - -
15.08.2019 03:00:00 - - - - - -
15.08.2019 02:00:00 - - - - - -
15.08.2019 01:00:00 - - - - - -
15.08.2019 00:00:00 - - - - - -
14.08.2019 23:00:00 - - - - - -
14.08.2019 22:00:00 - - - - - -
14.08.2019 21:00:00 - - - - - -
14.08.2019 20:00:00 16,8 3,8 11 6 E 25
14.08.2019 19:00:00 20,0 1,0 - - - 10
14.08.2019 18:00:00 20,0 1,0 - - - 10
14.08.2019 17:00:00 20,0 1,0 5 3 W 25
14.08.2019 16:00:00 20,0 2,0 - - - 10
14.08.2019 15:00:00 19,0 2,0 - - - 10
14.08.2019 14:00:00 19,0 2,0 5 3 W 22
14.08.2019 13:00:00 17,0 4,0 - - - 10
14.08.2019 12:00:00 16,0 5,0 - - - 10
14.08.2019 11:00:00 14,4 7,7 0 0 N 22
14.08.2019 10:00:00 14,0 9,0 - - - 10
14.08.2019 09:00:00 12,0 9,0 - - - 9
14.08.2019 08:00:00 10,8 8,9 0 0 N 8
14.08.2019 07:00:00 - - - - - -
14.08.2019 06:00:00 - - - - - -
14.08.2019 05:00:00 - - - - - -
14.08.2019 04:00:00 - - - - - -
14.08.2019 03:00:00 - - - - - -
14.08.2019 02:00:00 - - - - - -
14.08.2019 01:00:00 - - - - - -
14.08.2019 00:00:00 - - - - - -
13.08.2019 23:00:00 - - - - - -
13.08.2019 22:00:00 - - - - - -
13.08.2019 21:00:00 - - - - - -
13.08.2019 20:00:00 15,6 11,8 0 0 N 12
13.08.2019 19:00:00 16,0 13,0 - - - 10
13.08.2019 18:00:00 17,0 13,0 - - - 10
13.08.2019 17:00:00 18,0 14,3 9 5 E 12
13.08.2019 16:00:00 18,0 15,0 - - - 10
13.08.2019 15:00:00 18,0 15,0 - - - 10
13.08.2019 14:00:00 18,6 13,9 0 0 N 20
13.08.2019 13:00:00 19,0 11,0 - - - 10
13.08.2019 12:00:00 18,0 10,0 - - - 10
13.08.2019 11:00:00 17,3 10,4 8 4 W 10
13.08.2019 10:00:00 17,0 10,0 - - - 10
13.08.2019 09:00:00 16,0 14,0 - - - 6
13.08.2019 08:00:00 15,8 14,5 0 0 N 6
13.08.2019 07:00:00 - - - - - -
13.08.2019 06:00:00 - - - - - -
13.08.2019 05:00:00 - - - - - -
13.08.2019 04:00:00 - - - - - -
13.08.2019 03:00:00 - - - - - -
13.08.2019 02:00:00 - - - - - -
13.08.2019 01:00:00 - - - - - -
13.08.2019 00:00:00 - - - - - -
12.08.2019 23:00:00 - - - - - -
12.08.2019 22:00:00 - - - - - -
12.08.2019 21:00:00 - - - - - -
12.08.2019 20:00:00 19,0 16,4 0 0 N 12
12.08.2019 19:00:00 20,0 16,0 - - - 10
12.08.2019 18:00:00 21,0 14,0 - - - 10
12.08.2019 17:00:00 21,6 14,7 9 5 E 25
12.08.2019 16:00:00 21,0 16,0 - - - 10
12.08.2019 15:00:00 20,0 17,0 - - - 10
12.08.2019 14:00:00 21,6 13,5 5 3 E 15
12.08.2019 13:00:00 23,0 13,0 - - - 10
12.08.2019 12:00:00 24,0 13,0 - - - 10
12.08.2019 11:00:00 23,0 16,1 4 2 E 20
12.08.2019 10:00:00 21,0 17,0 - - - 10
12.08.2019 09:00:00 19,0 17,0 - - - 10
12.08.2019 08:00:00 17,0 16,2 0 0 N 12
12.08.2019 07:00:00 - - - - - -
12.08.2019 06:00:00 - - - - - -
12.08.2019 05:00:00 - - - - - -
12.08.2019 04:00:00 - - - - - -
12.08.2019 03:00:00 - - - - - -

tt = temperature
td = dewpoint
ff = wind speed
dd = wind direction
vv = visibility

Next stations